sensor_id;sensor_type;location;lat;lon;timestamp;pressure;altitude;pressure_sealevel;temperature;humidity
60375;BME280;70244;48.792;9.172;2024-01-15T05:16:39;96348.60;;;15.38;74.00
60375;BME280;70244;48.792;9.172;2024-01-15T05:19:09;96348.36;;;15.23;74.52
60375;BME280;70244;48.792;9.172;2024-01-15T05:21:12;96348.52;;;15.27;74.47
60375;BME280;70244;48.792;9.172;2024-01-15T05:23:26;96345.22;;;15.39;74.16
60375;BME280;70244;48.792;9.172;2024-01-15T05:25:57;96348.63;;;15.48;73.84
60375;BME280;70244;48.792;9.172;2024-01-15T05:28:27;96344.35;;;15.51;73.59
60375;BME280;70244;48.792;9.172;2024-01-15T05:30:58;96336.23;;;15.46;73.95
60375;BME280;70244;48.792;9.172;2024-01-15T05:33:28;96334.09;;;15.27;74.32
60375;BME280;70244;48.792;9.172;2024-01-15T05:35:59;96332.32;;;15.44;73.94
60375;BME280;70244;48.792;9.172;2024-01-15T05:38:30;96331.51;;;15.12;75.00
60375;BME280;70244;48.792;9.172;2024-01-15T05:41:00;96325.22;;;15.16;75.07
60375;BME280;70244;48.792;9.172;2024-01-15T05:43:31;96324.08;;;15.09;75.46
60375;BME280;70244;48.792;9.172;2024-01-15T05:46:02;96328.71;;;15.25;75.56
60375;BME280;70244;48.792;9.172;2024-01-15T05:48:32;96328.89;;;15.55;74.95
60375;BME280;70244;48.792;9.172;2024-01-15T05:51:03;96331.08;;;15.61;75.00
60375;BME280;70244;48.792;9.172;2024-01-15T05:53:34;96334.35;;;15.80;74.67
60375;BME280;70244;48.792;9.172;2024-01-15T05:56:05;96338.55;;;16.18;74.30
60375;BME280;70244;48.792;9.172;2024-01-15T05:58:35;96342.29;;;16.71;73.34
60375;BME280;70244;48.792;9.172;2024-01-15T06:01:06;96353.30;;;16.69;72.75
60375;BME280;70244;48.792;9.172;2024-01-15T06:03:37;96351.90;;;16.50;73.33
60375;BME280;70244;48.792;9.172;2024-01-15T06:06:09;96350.80;;;16.57;72.57
60375;BME280;70244;48.792;9.172;2024-01-15T06:08:39;96349.25;;;16.47;73.40
60375;BME280;70244;48.792;9.172;2024-01-15T06:11:09;96339.58;;;17.09;71.31
60375;BME280;70244;48.792;9.172;2024-01-15T06:13:40;96340.90;;;16.99;73.54
60375;BME280;70244;48.792;9.172;2024-01-15T06:16:14;96342.72;;;16.86;73.46
60375;BME280;70244;48.792;9.172;2024-01-15T06:18:41;96341.16;;;17.42;71.30
60375;BME280;70244;48.792;9.172;2024-01-15T06:21:12;96344.70;;;17.62;70.62
60375;BME280;70244;48.792;9.172;2024-01-15T06:23:43;96330.27;;;17.13;72.00
60375;BME280;70244;48.792;9.172;2024-01-15T06:26:14;96330.84;;;17.18;71.96
60375;BME280;70244;48.792;9.172;2024-01-15T06:28:44;96324.66;;;17.48;71.04
60375;BME280;70244;48.792;9.172;2024-01-15T06:31:15;96326.98;;;17.62;70.29
60375;BME280;70244;48.792;9.172;2024-01-15T06:33:45;96318.45;;;17.44;70.71
60375;BME280;70244;48.792;9.172;2024-01-15T06:36:16;96314.71;;;17.98;69.24
60375;BME280;70244;48.792;9.172;2024-01-15T06:38:47;96309.82;;;17.46;70.82
60375;BME280;70244;48.792;9.172;2024-01-15T06:41:17;96308.58;;;17.37;71.00
60375;BME280;70244;48.792;9.172;2024-01-15T06:43:48;96309.76;;;17.36;70.34
60375;BME280;70244;48.792;9.172;2024-01-15T06:46:20;96295.39;;;17.47;70.32
60375;BME280;70244;48.792;9.172;2024-01-15T06:48:49;96293.94;;;17.49;71.15
60375;BME280;70244;48.792;9.172;2024-01-15T06:51:19;96292.56;;;17.50;70.36
60375;BME280;70244;48.792;9.172;2024-01-15T06:53:50;96296.91;;;17.64;69.56
60375;BME280;70244;48.792;9.172;2024-01-15T06:56:20;96291.77;;;17.54;68.63
60375;BME280;70244;48.792;9.172;2024-01-15T06:58:51;96294.76;;;17.66;66.59
60375;BME280;70244;48.792;9.172;2024-01-15T07:01:21;96295.86;;;17.70;65.41
60375;BME280;70244;48.792;9.172;2024-01-15T07:03:52;96296.08;;;17.45;65.03
60375;BME280;70244;48.792;9.172;2024-01-15T07:06:22;96297.73;;;17.19;65.19
60375;BME280;70244;48.792;9.172;2024-01-15T07:08:53;96291.07;;;17.14;64.99
60375;BME280;70244;48.792;9.172;2024-01-15T07:11:24;96302.14;;;17.02;65.36
60375;BME280;70244;48.792;9.172;2024-01-15T07:13:55;96306.49;;;17.03;65.48
60375;BME280;70244;48.792;9.172;2024-01-15T07:16:26;96300.14;;;17.03;65.73
60375;BME280;70244;48.792;9.172;2024-01-15T07:18:56;96298.38;;;16.90;65.69
60375;BME280;70244;48.792;9.172;2024-01-15T07:21:27;96305.33;;;16.86;65.95
60375;BME280;70244;48.792;9.172;2024-01-15T07:23:58;96309.98;;;17.00;65.60
60375;BME280;70244;48.792;9.172;2024-01-15T07:26:30;96311.87;;;16.92;65.96
60375;BME280;70244;48.792;9.172;2024-01-15T07:28:59;96309.23;;;16.78;66.44
60375;BME280;70244;48.792;9.172;2024-01-15T07:31:30;96313.26;;;16.83;66.35
60375;BME280;70244;48.792;9.172;2024-01-15T07:34:00;96310.10;;;16.67;66.93
60375;BME280;70244;48.792;9.172;2024-01-15T07:36:31;96310.62;;;16.66;67.10
60375;BME280;70244;48.792;9.172;2024-01-15T07:39:02;96311.73;;;16.60;67.40
60375;BME280;70244;48.792;9.172;2024-01-15T07:41:32;96313.83;;;16.66;67.40
60375;BME280;70244;48.792;9.172;2024-01-15T07:44:03;96324.22;;;16.56;67.69
60375;BME280;70244;48.792;9.172;2024-01-15T07:46:33;96328.79;;;16.49;67.86
60375;BME280;70244;48.792;9.172;2024-01-15T07:49:04;96323.88;;;16.46;68.14
60375;BME280;70244;48.792;9.172;2024-01-15T07:51:35;96327.10;;;16.33;68.47
60375;BME280;70244;48.792;9.172;2024-01-15T07:54:06;96327.38;;;16.31;68.64
60375;BME280;70244;48.792;9.172;2024-01-15T07:59:07;96321.69;;;16.06;69.45
60375;BME280;70244;48.792;9.172;2024-01-15T08:01:37;96323.04;;;16.13;69.33
60375;BME280;70244;48.792;9.172;2024-01-15T08:04:08;96322.72;;;16.24;69.13
60375;BME280;70244;48.792;9.172;2024-01-15T08:06:39;96317.60;;;16.08;69.51
60375;BME280;70244;48.792;9.172;2024-01-15T08:09:10;96319.10;;;16.00;69.87
60375;BME280;70244;48.792;9.172;2024-01-15T08:11:41;96323.67;;;16.02;69.82
60375;BME280;70244;48.792;9.172;2024-01-15T08:14:12;96324.18;;;15.95;70.11
60375;BME280;70244;48.792;9.172;2024-01-15T08:16:42;96319.55;;;15.92;70.26
60375;BME280;70244;48.792;9.172;2024-01-15T08:19:13;96319.48;;;16.01;70.00
60375;BME280;70244;48.792;9.172;2024-01-15T08:21:43;96327.71;;;15.96;70.23
60375;BME280;70244;48.792;9.172;2024-01-15T08:24:15;96329.48;;;15.92;70.30
60375;BME280;70244;48.792;9.172;2024-01-15T08:26:45;96328.49;;;15.88;70.53
60375;BME280;70244;48.792;9.172;2024-01-15T08:29:16;96330.79;;;15.85;70.48
60375;BME280;70244;48.792;9.172;2024-01-15T08:31:47;96330.09;;;15.84;70.49
60375;BME280;70244;48.792;9.172;2024-01-15T08:34:18;96333.75;;;15.73;70.72
60375;BME280;70244;48.792;9.172;2024-01-15T08:36:48;96327.37;;;15.70;70.74
60375;BME280;70244;48.792;9.172;2024-01-15T08:39:19;96326.52;;;15.79;70.61
60375;BME280;70244;48.792;9.172;2024-01-15T08:41:50;96323.71;;;15.55;71.26
60375;BME280;70244;48.792;9.172;2024-01-15T08:44:21;96324.43;;;15.70;71.04
60375;BME280;70244;48.792;9.172;2024-01-15T08:46:51;96326.00;;;15.66;71.16
60375;BME280;70244;48.792;9.172;2024-01-15T08:49:22;96322.38;;;15.65;71.15
60375;BME280;70244;48.792;9.172;2024-01-15T08:51:53;96325.78;;;15.78;70.90
60375;BME280;70244;48.792;9.172;2024-01-15T08:54:23;96327.83;;;16.05;70.13
60375;BME280;70244;48.792;9.172;2024-01-15T08:56:54;96323.97;;;15.81;70.73
60375;BME280;70244;48.792;9.172;2024-01-15T08:59:25;96329.99;;;15.80;70.62
60375;BME280;70244;48.792;9.172;2024-01-15T09:01:56;96336.86;;;15.71;70.96
60375;BME280;70244;48.792;9.172;2024-01-15T09:04:27;96332.67;;;15.58;71.35
60375;BME280;70244;48.792;9.172;2024-01-15T09:06:57;96337.50;;;15.67;71.18
60375;BME280;70244;48.792;9.172;2024-01-15T09:09:28;96335.12;;;15.73;70.91
60375;BME280;70244;48.792;9.172;2024-01-15T09:11:59;96332.39;;;15.57;71.30
60375;BME280;70244;48.792;9.172;2024-01-15T09:14:30;96330.53;;;15.68;70.91
60375;BME280;70244;48.792;9.172;2024-01-15T09:17:01;96334.38;;;15.60;71.18
60375;BME280;70244;48.792;9.172;2024-01-15T09:19:32;96330.13;;;15.59;71.22
60375;BME280;70244;48.792;9.172;2024-01-15T09:22:03;96324.01;;;15.63;71.11
60375;BME280;70244;48.792;9.172;2024-01-15T09:24:33;96315.33;;;15.50;71.32
60375;BME280;70244;48.792;9.172;2024-01-15T09:27:04;96314.13;;;15.57;71.20
60375;BME280;70244;48.792;9.172;2024-01-15T09:29:35;96312.04;;;15.57;71.12
60375;BME280;70244;48.792;9.172;2024-01-15T09:32:06;96307.22;;;15.82;70.50
60375;BME280;70244;48.792;9.172;2024-01-15T09:34:36;96303.19;;;15.87;70.34
60375;BME280;70244;48.792;9.172;2024-01-15T09:37:07;96305.61;;;15.79;70.60
60375;BME280;70244;48.792;9.172;2024-01-15T09:39:38;96304.98;;;15.87;70.36
60375;BME280;70244;48.792;9.172;2024-01-15T09:42:09;96307.49;;;15.85;70.22
60375;BME280;70244;48.792;9.172;2024-01-15T09:44:39;96310.51;;;15.92;70.06
60375;BME280;70244;48.792;9.172;2024-01-15T09:47:10;96309.36;;;15.80;70.35
60375;BME280;70244;48.792;9.172;2024-01-15T09:49:40;96314.52;;;15.90;70.08
60375;BME280;70244;48.792;9.172;2024-01-15T09:52:11;96311.86;;;15.83;70.35
60375;BME280;70244;48.792;9.172;2024-01-15T09:54:43;96304.84;;;15.79;70.35
60375;BME280;70244;48.792;9.172;2024-01-15T09:57:13;96307.37;;;15.70;70.62
60375;BME280;70244;48.792;9.172;2024-01-15T09:59:44;96307.56;;;15.66;70.59
60375;BME280;70244;48.792;9.172;2024-01-15T10:02:15;96296.54;;;15.66;70.61
60375;BME280;70244;48.792;9.172;2024-01-15T10:04:45;96294.17;;;15.70;70.43
60375;BME280;70244;48.792;9.172;2024-01-15T10:07:16;96288.38;;;15.47;70.94
60375;BME280;70244;48.792;9.172;2024-01-15T10:09:47;96282.76;;;15.63;70.53
60375;BME280;70244;48.792;9.172;2024-01-15T10:12:18;96279.41;;;15.61;70.46
60375;BME280;70244;48.792;9.172;2024-01-15T10:14:49;96283.96;;;15.56;70.53
60375;BME280;70244;48.792;9.172;2024-01-15T10:17:20;96278.03;;;15.56;70.42
60375;BME280;70244;48.792;9.172;2024-01-15T10:19:50;96273.87;;;15.41;70.79
60375;BME280;70244;48.792;9.172;2024-01-15T10:22:21;96279.66;;;15.53;70.46
60375;BME280;70244;48.792;9.172;2024-01-15T10:24:52;96279.13;;;15.65;70.12
60375;BME280;70244;48.792;9.172;2024-01-15T10:27:23;96271.35;;;15.50;70.52
60375;BME280;70244;48.792;9.172;2024-01-15T10:29:53;96263.51;;;15.55;70.44
60375;BME280;70244;48.792;9.172;2024-01-15T10:32:24;96257.11;;;15.45;70.81
60375;BME280;70244;48.792;9.172;2024-01-15T10:34:55;96257.21;;;15.47;70.61
60375;BME280;70244;48.792;9.172;2024-01-15T10:37:26;96250.63;;;15.60;70.40
60375;BME280;70244;48.792;9.172;2024-01-15T10:39:57;96246.59;;;15.49;70.42
60375;BME280;70244;48.792;9.172;2024-01-15T10:42:27;96236.95;;;15.52;70.38
60375;BME280;70244;48.792;9.172;2024-01-15T10:44:58;96238.91;;;15.61;70.20
60375;BME280;70244;48.792;9.172;2024-01-15T10:47:29;96227.97;;;15.66;70.06
60375;BME280;70244;48.792;9.172;2024-01-15T10:50:01;96220.33;;;15.56;70.12
60375;BME280;70244;48.792;9.172;2024-01-15T10:52:30;96216.79;;;15.54;70.07
60375;BME280;70244;48.792;9.172;2024-01-15T10:55:03;96215.56;;;15.53;69.97
60375;BME280;70244;48.792;9.172;2024-01-15T10:57:32;96220.26;;;15.67;69.66
60375;BME280;70244;48.792;9.172;2024-01-15T11:00:04;96228.79;;;15.53;69.93
60375;BME280;70244;48.792;9.172;2024-01-15T11:02:36;96227.07;;;15.57;69.84
60375;BME280;70244;48.792;9.172;2024-01-15T11:05:05;96230.15;;;15.59;69.70
60375;BME280;70244;48.792;9.172;2024-01-15T11:07:35;96227.86;;;15.65;69.51
60375;BME280;70244;48.792;9.172;2024-01-15T11:10:07;96229.72;;;15.49;69.88
60375;BME280;70244;48.792;9.172;2024-01-15T11:12:41;96229.84;;;15.61;69.54
60375;BME280;70244;48.792;9.172;2024-01-15T11:15:08;96232.42;;;15.56;69.70
60375;BME280;70244;48.792;9.172;2024-01-15T11:20:09;96227.24;;;15.38;70.09
60375;BME280;70244;48.792;9.172;2024-01-15T11:22:48;96223.31;;;15.41;70.00
60375;BME280;70244;48.792;9.172;2024-01-15T11:25:14;96215.54;;;15.54;69.66
60375;BME280;70244;48.792;9.172;2024-01-15T11:27:43;96210.89;;;15.72;69.29
60375;BME280;70244;48.792;9.172;2024-01-15T11:30:13;96204.41;;;15.52;69.72
60375;BME280;70244;48.792;9.172;2024-01-15T11:32:43;96206.90;;;15.56;69.64
60375;BME280;70244;48.792;9.172;2024-01-15T11:35:14;96209.02;;;15.60;69.67
60375;BME280;70244;48.792;9.172;2024-01-15T11:40:18;96194.16;;;15.49;69.79
60375;BME280;70244;48.792;9.172;2024-01-15T11:42:47;96198.89;;;15.60;69.42
60375;BME280;70244;48.792;9.172;2024-01-15T11:45:19;96196.93;;;15.46;69.72
60375;BME280;70244;48.792;9.172;2024-01-15T11:48:02;96197.53;;;15.50;69.72
60375;BME280;70244;48.792;9.172;2024-01-15T11:50:20;96198.77;;;15.42;69.97
60375;BME280;70244;48.792;9.172;2024-01-15T11:52:56;96204.45;;;15.44;69.85
60375;BME280;70244;48.792;9.172;2024-01-15T11:55:25;96205.71;;;15.35;70.10
60375;BME280;70244;48.792;9.172;2024-01-15T11:57:52;96206.11;;;15.35;70.02
60375;BME280;70244;48.792;9.172;2024-01-15T12:00:23;96201.51;;;15.33;70.02
60375;BME280;70244;48.792;9.172;2024-01-15T12:02:53;96202.60;;;15.12;70.61
60375;BME280;70244;48.792;9.172;2024-01-15T12:05:24;96200.01;;;15.32;70.02
60375;BME280;70244;48.792;9.172;2024-01-15T12:07:54;96194.02;;;15.17;70.48
60375;BME280;70244;48.792;9.172;2024-01-15T12:10:25;96191.61;;;15.20;70.39
60375;BME280;70244;48.792;9.172;2024-01-15T12:12:58;96194.48;;;15.11;70.65
60375;BME280;70244;48.792;9.172;2024-01-15T12:15:28;96203.58;;;15.06;70.79
60375;BME280;70244;48.792;9.172;2024-01-15T12:17:59;96205.23;;;15.07;70.70
60375;BME280;70244;48.792;9.172;2024-01-15T12:20:29;96212.77;;;15.26;70.26
60375;BME280;70244;48.792;9.172;2024-01-15T12:23:00;96206.33;;;15.41;69.98
60375;BME280;70244;48.792;9.172;2024-01-15T12:25:31;96211.41;;;15.45;69.76
60375;BME280;70244;48.792;9.172;2024-01-15T12:28:01;96203.10;;;15.67;69.14
60375;BME280;70244;48.792;9.172;2024-01-15T12:30:33;96211.90;;;15.59;69.38
60375;BME280;70244;48.792;9.172;2024-01-15T12:33:03;96205.91;;;15.47;69.74
60375;BME280;70244;48.792;9.172;2024-01-15T12:35:34;96207.20;;;15.55;69.55
60375;BME280;70244;48.792;9.172;2024-01-15T12:38:04;96203.45;;;15.59;69.43
60375;BME280;70244;48.792;9.172;2024-01-15T12:40:35;96214.46;;;15.65;69.33
60375;BME280;70244;48.792;9.172;2024-01-15T12:43:06;96214.73;;;15.60;69.32
60375;BME280;70244;48.792;9.172;2024-01-15T12:45:37;96220.90;;;15.39;70.02
60375;BME280;70244;48.792;9.172;2024-01-15T12:48:07;96221.50;;;15.43;69.82
60375;BME280;70244;48.792;9.172;2024-01-15T12:50:38;96221.55;;;15.14;70.57
60375;BME280;70244;48.792;9.172;2024-01-15T12:53:09;96226.45;;;15.24;70.31
60375;BME280;70244;48.792;9.172;2024-01-15T12:55:39;96223.77;;;15.13;70.55
60375;BME280;70244;48.792;9.172;2024-01-15T12:58:10;96224.63;;;15.15;70.48
60375;BME280;70244;48.792;9.172;2024-01-15T13:00:41;96236.18;;;15.16;70.39
60375;BME280;70244;48.792;9.172;2024-01-15T13:03:13;96229.63;;;14.97;70.91
60375;BME280;70244;48.792;9.172;2024-01-15T13:05:43;96230.16;;;14.96;70.88
60375;BME280;70244;48.792;9.172;2024-01-15T13:08:14;96230.70;;;15.17;70.38
60375;BME280;70244;48.792;9.172;2024-01-15T13:10:44;96239.26;;;15.23;70.24
60375;BME280;70244;48.792;9.172;2024-01-15T13:13:15;96248.83;;;15.38;69.95
60375;BME280;70244;48.792;9.172;2024-01-15T13:15:46;96257.49;;;15.34;70.12
60375;BME280;70244;48.792;9.172;2024-01-15T13:18:17;96256.06;;;15.42;69.91
60375;BME280;70244;48.792;9.172;2024-01-15T13:20:47;96256.51;;;15.37;70.09
60375;BME280;70244;48.792;9.172;2024-01-15T13:23:18;96262.28;;;15.37;70.08
60375;BME280;70244;48.792;9.172;2024-01-15T13:25:49;96260.28;;;15.32;70.14
60375;BME280;70244;48.792;9.172;2024-01-15T13:28:20;96262.16;;;15.25;70.29
60375;BME280;70244;48.792;9.172;2024-01-15T13:30:51;96264.18;;;15.22;70.62
60375;BME280;70244;48.792;9.172;2024-01-15T13:33:21;96271.29;;;15.24;70.44
60375;BME280;70244;48.792;9.172;2024-01-15T13:35:52;96268.94;;;15.11;70.75
60375;BME280;70244;48.792;9.172;2024-01-15T13:38:23;96272.80;;;14.98;71.05
60375;BME280;70244;48.792;9.172;2024-01-15T13:40:54;96268.83;;;14.94;71.17
60375;BME280;70244;48.792;9.172;2024-01-15T13:43:25;96270.37;;;15.02;70.88
60375;BME280;70244;48.792;9.172;2024-01-15T13:45:55;96276.70;;;15.22;70.40
60375;BME280;70244;48.792;9.172;2024-01-15T13:48:26;96282.58;;;15.01;70.85
60375;BME280;70244;48.792;9.172;2024-01-15T13:50:57;96289.18;;;15.16;70.50
60375;BME280;70244;48.792;9.172;2024-01-15T13:53:28;96287.78;;;15.26;70.19
60375;BME280;70244;48.792;9.172;2024-01-15T13:55:59;96288.72;;;15.13;70.55
60375;BME280;70244;48.792;9.172;2024-01-15T13:58:29;96289.85;;;15.21;70.36
60375;BME280;70244;48.792;9.172;2024-01-15T14:01:01;96296.38;;;15.25;70.23
60375;BME280;70244;48.792;9.172;2024-01-15T14:03:31;96293.01;;;15.31;70.12
60375;BME280;70244;48.792;9.172;2024-01-15T14:06:02;96299.26;;;15.20;70.31
60375;BME280;70244;48.792;9.172;2024-01-15T14:08:33;96300.73;;;15.09;70.58
60375;BME280;70244;48.792;9.172;2024-01-15T14:11:04;96300.68;;;15.09;70.65
60375;BME280;70244;48.792;9.172;2024-01-15T14:13:39;96304.37;;;15.06;70.72
60375;BME280;70244;48.792;9.172;2024-01-15T14:16:05;96306.54;;;15.17;70.36
60375;BME280;70244;48.792;9.172;2024-01-15T14:18:36;96307.46;;;15.08;70.52
60375;BME280;70244;48.792;9.172;2024-01-15T14:21:07;96310.50;;;15.00;70.69
60375;BME280;70244;48.792;9.172;2024-01-15T14:23:38;96319.08;;;15.20;70.27
60375;BME280;70244;48.792;9.172;2024-01-15T14:26:08;96326.14;;;15.44;69.54
60375;BME280;70244;48.792;9.172;2024-01-15T14:28:39;96330.47;;;15.22;70.04
60375;BME280;70244;48.792;9.172;2024-01-15T14:31:10;96330.36;;;15.13;70.32
60375;BME280;70244;48.792;9.172;2024-01-15T14:33:41;96340.79;;;15.33;69.85
60375;BME280;70244;48.792;9.172;2024-01-15T14:36:12;96345.33;;;15.32;69.93
60375;BME280;70244;48.792;9.172;2024-01-15T14:38:42;96349.62;;;15.18;70.38
60375;BME280;70244;48.792;9.172;2024-01-15T14:41:13;96358.11;;;15.16;70.36
60375;BME280;70244;48.792;9.172;2024-01-15T14:43:44;96360.01;;;15.33;70.02
60375;BME280;70244;48.792;9.172;2024-01-15T14:46:15;96370.28;;;15.14;70.39
60375;BME280;70244;48.792;9.172;2024-01-15T14:48:46;96374.87;;;15.06;70.56
60375;BME280;70244;48.792;9.172;2024-01-15T14:51:17;96376.39;;;15.04;70.59
60375;BME280;70244;48.792;9.172;2024-01-15T14:53:47;96384.47;;;14.94;70.85
60375;BME280;70244;48.792;9.172;2024-01-15T14:56:18;96389.68;;;14.99;70.74
60375;BME280;70244;48.792;9.172;2024-01-15T14:58:49;96392.27;;;14.85;71.04
60375;BME280;70244;48.792;9.172;2024-01-15T15:01:20;96401.51;;;14.70;71.47
60375;BME280;70244;48.792;9.172;2024-01-15T15:03:50;96400.18;;;14.74;71.34
60375;BME280;70244;48.792;9.172;2024-01-15T15:06:21;96408.82;;;14.76;71.29
60375;BME280;70244;48.792;9.172;2024-01-15T15:08:52;96409.79;;;14.76;71.00
60375;BME280;70244;48.792;9.172;2024-01-15T15:11:23;96414.26;;;14.76;70.85
60375;BME280;70244;48.792;9.172;2024-01-15T15:13:54;96416.52;;;14.93;70.35
60375;BME280;70244;48.792;9.172;2024-01-15T15:16:25;96421.85;;;15.26;69.50
60375;BME280;70244;48.792;9.172;2024-01-15T15:18:55;96425.70;;;15.72;68.26
60375;BME280;70244;48.792;9.172;2024-01-15T15:21:26;96430.41;;;15.65;68.43
60375;BME280;70244;48.792;9.172;2024-01-15T15:23:57;96436.17;;;15.77;68.04
60375;BME280;70244;48.792;9.172;2024-01-15T15:26:28;96437.79;;;15.73;67.96
60375;BME280;70244;48.792;9.172;2024-01-15T15:28:59;96443.88;;;15.52;68.57
60375;BME280;70244;48.792;9.172;2024-01-15T15:31:29;96447.93;;;15.45;68.82
60375;BME280;70244;48.792;9.172;2024-01-15T15:34:00;96439.27;;;15.46;68.76
60375;BME280;70244;48.792;9.172;2024-01-15T15:36:31;96438.07;;;15.56;68.56
60375;BME280;70244;48.792;9.172;2024-01-15T15:39:02;96444.72;;;15.36;69.07
60375;BME280;70244;48.792;9.172;2024-01-15T15:41:33;96453.28;;;15.26;69.42
60375;BME280;70244;48.792;9.172;2024-01-15T15:44:03;96454.72;;;15.21;69.50
60375;BME280;70244;48.792;9.172;2024-01-15T15:46:34;96457.09;;;15.04;70.02
60375;BME280;70244;48.792;9.172;2024-01-15T15:49:05;96460.76;;;15.11;69.92
60375;BME280;70244;48.792;9.172;2024-01-15T15:51:36;96464.17;;;15.01;70.07
60375;BME280;70244;48.792;9.172;2024-01-15T15:54:07;96460.54;;;15.04;70.00
60375;BME280;70244;48.792;9.172;2024-01-15T15:56:37;96461.83;;;15.29;69.39
60375;BME280;70244;48.792;9.172;2024-01-15T15:59:08;96473.95;;;15.30;69.27
60375;BME280;70244;48.792;9.172;2024-01-15T16:01:44;96478.82;;;15.37;69.17
60375;BME280;70244;48.792;9.172;2024-01-15T16:04:10;96488.89;;;15.46;69.27
60375;BME280;70244;48.792;9.172;2024-01-15T16:06:41;96492.23;;;15.52;69.31
60375;BME280;70244;48.792;9.172;2024-01-15T16:09:11;96497.25;;;15.63;69.07
60375;BME280;70244;48.792;9.172;2024-01-15T16:11:42;96500.01;;;15.95;68.65
60375;BME280;70244;48.792;9.172;2024-01-15T16:14:13;96498.11;;;16.06;68.35
60375;BME280;70244;48.792;9.172;2024-01-15T16:16:44;96498.52;;;16.30;67.85
60375;BME280;70244;48.792;9.172;2024-01-15T16:19:14;96497.72;;;16.30;67.99
60375;BME280;70244;48.792;9.172;2024-01-15T16:21:45;96504.86;;;16.77;67.14
60375;BME280;70244;48.792;9.172;2024-01-15T16:24:16;96505.29;;;16.48;67.96
60375;BME280;70244;48.792;9.172;2024-01-15T16:26:47;96508.51;;;17.04;66.85
60375;BME280;70244;48.792;9.172;2024-01-15T16:29:18;96500.97;;;16.84;68.01
60375;BME280;70244;48.792;9.172;2024-01-15T16:31:48;96508.31;;;17.42;66.53
60375;BME280;70244;48.792;9.172;2024-01-15T16:34:19;96505.09;;;17.39;66.39
60375;BME280;70244;48.792;9.172;2024-01-15T16:36:50;96507.29;;;17.40;66.57
60375;BME280;70244;48.792;9.172;2024-01-15T16:39:21;96513.10;;;17.82;65.94
60375;BME280;70244;48.792;9.172;2024-01-15T16:41:51;96517.98;;;18.21;65.14
60375;BME280;70244;48.792;9.172;2024-01-15T16:44:22;96526.39;;;18.30;65.19
60375;BME280;70244;48.792;9.172;2024-01-15T16:46:53;96524.04;;;18.17;65.47
60375;BME280;70244;48.792;9.172;2024-01-15T16:49:23;96530.06;;;18.78;64.43
60375;BME280;70244;48.792;9.172;2024-01-15T16:51:54;96528.16;;;18.90;63.80
60375;BME280;70244;48.792;9.172;2024-01-15T16:54:25;96535.23;;;19.11;63.54
60375;BME280;70244;48.792;9.172;2024-01-15T16:56:55;96542.41;;;19.07;63.78
60375;BME280;70244;48.792;9.172;2024-01-15T16:59:26;96541.22;;;18.89;63.47
60375;BME280;70244;48.792;9.172;2024-01-15T17:01:57;96542.66;;;19.31;62.72
60375;BME280;70244;48.792;9.172;2024-01-15T17:04:27;96547.62;;;18.67;64.24
60375;BME280;70244;48.792;9.172;2024-01-15T17:06:58;96548.12;;;18.98;63.67
60375;BME280;70244;48.792;9.172;2024-01-15T17:09:29;96548.03;;;18.93;63.94
60375;BME280;70244;48.792;9.172;2024-01-15T17:12:00;96548.58;;;18.95;63.62
60375;BME280;70244;48.792;9.172;2024-01-15T17:14:31;96549.67;;;19.24;63.24
60375;BME280;70244;48.792;9.172;2024-01-15T17:17:01;96555.32;;;19.35;63.02
60375;BME280;70244;48.792;9.172;2024-01-15T17:19:32;96562.01;;;19.40;62.78
60375;BME280;70244;48.792;9.172;2024-01-15T17:22:03;96562.59;;;19.36;63.01
60375;BME280;70244;48.792;9.172;2024-01-15T17:24:34;96574.29;;;19.45;63.01
60375;BME280;70244;48.792;9.172;2024-01-15T17:27:04;96572.84;;;19.03;64.05
60375;BME280;70244;48.792;9.172;2024-01-15T17:29:35;96577.33;;;18.74;64.69
60375;BME280;70244;48.792;9.172;2024-01-15T17:32:06;96578.47;;;19.22;63.28
60375;BME280;70244;48.792;9.172;2024-01-15T17:34:37;96581.41;;;18.82;63.94
60375;BME280;70244;48.792;9.172;2024-01-15T17:37:07;96586.72;;;18.82;63.89
60375;BME280;70244;48.792;9.172;2024-01-15T17:39:38;96588.93;;;18.93;63.69
60375;BME280;70244;48.792;9.172;2024-01-15T17:42:09;96597.08;;;18.64;64.66
60375;BME280;70244;48.792;9.172;2024-01-15T17:44:40;96601.22;;;18.83;64.15
60375;BME280;70244;48.792;9.172;2024-01-15T17:47:11;96599.91;;;18.64;64.81
60375;BME280;70244;48.792;9.172;2024-01-15T17:49:41;96607.66;;;19.06;70.62
60375;BME280;70244;48.792;9.172;2024-01-15T17:52:11;96610.38;;;19.35;74.67
60375;BME280;70244;48.792;9.172;2024-01-15T17:54:42;96611.70;;;19.77;70.79
60375;BME280;70244;48.792;9.172;2024-01-15T17:57:12;96617.54;;;19.63;72.89
60375;BME280;70244;48.792;9.172;2024-01-15T17:59:42;96621.71;;;19.62;71.71
60375;BME280;70244;48.792;9.172;2024-01-15T18:02:13;96621.73;;;19.84;69.98
60375;BME280;70244;48.792;9.172;2024-01-15T18:04:43;96627.76;;;19.93;71.33
60375;BME280;70244;48.792;9.172;2024-01-15T18:07:13;96631.45;;;19.83;70.73
60375;BME280;70244;48.792;9.172;2024-01-15T18:09:44;96637.88;;;19.79;70.10
60375;BME280;70244;48.792;9.172;2024-01-15T18:12:15;96641.96;;;19.69;69.62
60375;BME280;70244;48.792;9.172;2024-01-15T18:14:46;96645.54;;;19.56;69.71
60375;BME280;70244;48.792;9.172;2024-01-15T18:17:16;96650.78;;;19.38;71.16
60375;BME280;70244;48.792;9.172;2024-01-15T18:19:47;96655.79;;;19.52;69.75
60375;BME280;70244;48.792;9.172;2024-01-15T18:22:18;96655.42;;;19.34;71.77
60375;BME280;70244;48.792;9.172;2024-01-15T18:24:48;96655.10;;;19.28;70.39
60375;BME280;70244;48.792;9.172;2024-01-15T18:27:19;96653.77;;;19.43;69.43
60375;BME280;70244;48.792;9.172;2024-01-15T18:29:50;96653.95;;;19.13;69.64
60375;BME280;70244;48.792;9.172;2024-01-15T18:32:20;96646.55;;;18.93;69.91
60375;BME280;70244;48.792;9.172;2024-01-15T18:34:51;96653.17;;;18.92;70.17
60375;BME280;70244;48.792;9.172;2024-01-15T18:37:22;96657.15;;;18.72;70.27
60375;BME280;70244;48.792;9.172;2024-01-15T18:39:52;96654.70;;;18.90;69.40